Wind EuroAirport

Messzeit Windrichtung Windgeschwindigkeit [Knoten] Rückenwind Nordpiste [Knoten] METAR
2020-01-20 18:00 SO 130°
(90°–170°)
4 - LFSB 201700Z 13004KT 090V170 9999 FEW046 03/M04 Q1040 NOSIG
2020-01-20 17:30 - 2 - LFSB 201630Z VRB02KT 9999 FEW046 03/M04 Q1040 NOSIG
2020-01-20 17:00 SO 120° 6 - LFSB 201600Z 12006KT 9999 FEW046 04/M03 Q1040 NOSIG
2020-01-20 16:30 O 110°
(70°–140°)
4 - LFSB 201530Z 11004KT 070V140 9999 FEW046 05/M03 Q1040 NOSIG
2020-01-20 16:00 SO 130°
(100°–160°)
5 - LFSB 201500Z 13005KT 100V160 9999 FEW025 06/M03 Q1040 NOSIG
2020-01-20 15:30 SO 150°
(100°–220°)
3 - LFSB 201430Z 15003KT 100V220 9999 FEW025 07/M03 Q1040 NOSIG
2020-01-20 15:00 - 3 - LFSB 201400Z VRB03KT 9999 FEW025 06/M02 Q1040 NOSIG
2020-01-20 14:00 - 2 - LFSB 201300Z VRB02KT 9999 FEW020 07/M01 Q1041 NOSIG
2020-01-20 13:30 - 2 - LFSB 201230Z VRB02KT 9999 FEW020 06/M01 Q1041 NOSIG
2020-01-20 13:00 - 3 - LFSB 201200Z VRB03KT 9999 FEW016 05/M01 Q1041 NOSIG
2020-01-20 12:30 var 360°
(320°–30°)
5 3–5 LFSB 201130Z 36005KT 320V030 9999 FEW016 05/M00 Q1042 NOSIG
2020-01-20 12:00 N 340° 6 6 LFSB 201100Z 34006KT 9999 FEW016 04/00 Q1042 NOSIG
2020-01-20 11:30 N 10°
(340°–60°)
4 1–4 LFSB 201030Z 01004KT 340V060 9999 FEW016 04/M01 Q1042 NOSIG
2020-01-20 11:00 N 20° 5 4 LFSB 201000Z 02005KT 9999 FEW015 03/M01 Q1043 NOSIG
2020-01-20 10:30 - 1 - LFSB 200930Z VRB01KT 9999 FEW010 03/M00 Q1043 NOSIG
2020-01-20 10:00 - 2 - LFSB 200900Z VRB02KT 9999 FEW010 01/M01 Q1043 NOSIG
2020-01-20 09:30 - 2 - LFSB 200830Z VRB02KT 9999 FEW020 01/M01 Q1042 NOSIG
2020-01-20 09:00 N 10° 7 6 LFSB 200800Z 01007KT 9999 FEW020 M00/M02 Q1042 NOSIG
2020-01-20 08:00 var 360° 6 6 LFSB 200700Z 36006KT 9999 FEW043 M01/M02 Q1042 TEMPO 3000 BR
2020-01-20 07:30 N 340°
(320°–20°)
5 4–5 LFSB 200630Z 34005KT 320V020 7000 VCFG FEW043 M02/M02 Q1042 TEMPO 3000 BR
2020-01-20 07:00 N 350° 4 4 LFSB 200600Z 35004KT 6000 VCFG FEW001 BKN043 M02/M03 Q1042 TEMPO 3000 BR
2020-01-20 06:30 - 2 - LFSB 200530Z VRB02KT 6000 VCFG FEW001 M03/M03 Q1042 TEMPO 4000 BR
2020-01-20 06:00 - 1 - LFSB 200500Z VRB01KT 7000 FEW043 SCT060 M01/M02 Q1041 TEMPO 4000 BR
2020-01-20 05:30 NW 310° 4 3 LFSB 200430Z 31004KT 7000 FEW043 M02/M02 Q1041 NOSIG
2020-01-20 05:00 - 2 - LFSB 200400Z VRB02KT 7000 FEW043 M03/M03 Q1041 NOSIG
2020-01-20 04:30 - 2 - LFSB 200330Z VRB02KT 6000 FEW040 M03/M04 Q1041 NOSIG
2020-01-20 04:00 NW 320° 4 4 LFSB 200300Z AUTO 32004KT 6000 SCT042 M03/M04 Q1041 TEMPO 0200 FZFG VV///
2020-01-20 03:30 - 1 - LFSB 200230Z AUTO VRB01KT 6000 SCT042 SCT048 M03/M03 Q1041 TEMPO 0200 FZFG VV///
2020-01-20 03:00 NW 320°
(260°–10°)
3 1–3 LFSB 200200Z AUTO 32003KT 260V010 5000 BR FEW045 SCT054 M03/M04 Q1041 TEMPO 0200 FZFG VV///
2020-01-20 02:30 SW 240° 3 - LFSB 200130Z AUTO 24003KT 7000 2300 FEW045 M03/M03 Q1041
2020-01-20 02:00 - 3 - LFSB 200100Z AUTO VRB03KT 7000 NSC M02/M03 Q1041 TEMPO 0200 FZFG VV///
2020-01-20 01:30 - 2 - LFSB 200030Z AUTO VRB02KT 6000 2700 FEW048 M02/M03 Q1041 TEMPO 0200 FZFG VV///
2020-01-20 01:00 - 3 - LFSB 200000Z AUTO VRB03KT 7000 NSC M02/M03 Q1041 TEMPO 3000 BR OVC002
2020-01-20 00:30 - 1 - LFSB 192330Z AUTO VRB01KT 7000 NSC M02/M03 Q1041 TEMPO 3000 BR OVC002
2020-01-20 00:00 - 2 - LFSB 192300Z VRB02KT 8000 FEW046 M01/M03 Q1041 NOSIG
2020-01-19 23:30 - 3 - LFSB 192230Z VRB03KT 9000 FEW046 M01/M02 Q1041 NOSIG
2020-01-19 23:00 - 2 - LFSB 192200Z VRB02KT 9999 FEW043 00/M02 Q1040 NOSIG
2020-01-19 22:30 N 20°
(360°–60°)
4 1–4 LFSB 192130Z 02004KT 360V060 9999 FEW043 01/M01 Q1040 NOSIG
2020-01-19 22:00 var 360° 4 4 LFSB 192100Z 36004KT 9999 FEW043 BKN063 02/M00 Q1040 NOSIG
2020-01-19 21:30 N 350° 5 5 LFSB 192030Z 35005KT 9999 FEW046 BKN063 01/M00 Q1040 NOSIG
2020-01-19 21:00 N 350° 3 3 LFSB 192000Z 35003KT 9999 FEW043 BKN063 01/M00 Q1040 NOSIG
2020-01-19 20:30 - 2 - LFSB 191930Z VRB02KT 9999 FEW043 BKN066 02/M00 Q1039 NOSIG
2020-01-19 20:00 var 360° 6 6 LFSB 191900Z 36006KT 9999 BKN043 BKN066 02/00 Q1039 NOSIG
2020-01-19 19:30 - 2 - LFSB 191830Z VRB02KT 9999 SCT043 BKN066 02/M00 Q1039 NOSIG
2020-01-19 19:00 N 20° 5 4 LFSB 191800Z 02005KT 9999 FEW016 SCT046 BKN066 03/M00 Q1038 NOSIG